sensor_id;sensor_type;location;lat;lon;timestamp;P1;durP1;ratioP1;P2;durP2;ratioP2
75280;SDS011;63874;47.230;39.620;2023-02-18T00:01:34;1.80;;;0.73;;
75280;SDS011;63874;47.230;39.620;2023-02-18T00:04:00;3.63;;;1.27;;
75280;SDS011;63874;47.230;39.620;2023-02-18T00:08:56;3.33;;;1.15;;
75280;SDS011;63874;47.230;39.620;2023-02-18T00:11:26;3.15;;;1.23;;
75280;SDS011;63874;47.230;39.620;2023-02-18T00:13:55;2.70;;;1.08;;
75280;SDS011;63874;47.230;39.620;2023-02-18T00:16:23;5.80;;;2.35;;
75280;SDS011;63874;47.230;39.620;2023-02-18T00:18:53;2.88;;;1.10;;
75280;SDS011;63874;47.230;39.620;2023-02-18T00:21:23;4.05;;;1.45;;
75280;SDS011;63874;47.230;39.620;2023-02-18T00:23:50;3.38;;;1.58;;
75280;SDS011;63874;47.230;39.620;2023-02-18T00:26:16;2.97;;;1.00;;
75280;SDS011;63874;47.230;39.620;2023-02-18T00:28:43;2.97;;;1.13;;
75280;SDS011;63874;47.230;39.620;2023-02-18T00:31:14;4.45;;;1.65;;
75280;SDS011;63874;47.230;39.620;2023-02-18T00:33:42;5.00;;;2.60;;
75280;SDS011;63874;47.230;39.620;2023-02-18T00:36:09;3.70;;;1.35;;
75280;SDS011;63874;47.230;39.620;2023-02-18T00:38:37;3.17;;;1.05;;
75280;SDS011;63874;47.230;39.620;2023-02-18T00:41:04;3.15;;;1.45;;
75280;SDS011;63874;47.230;39.620;2023-02-18T00:43:32;2.20;;;0.95;;
75280;SDS011;63874;47.230;39.620;2023-02-18T00:45:58;1.55;;;0.65;;
75280;SDS011;63874;47.230;39.620;2023-02-18T00:48:24;3.28;;;1.27;;
75280;SDS011;63874;47.230;39.620;2023-02-18T00:50:50;3.47;;;1.30;;
75280;SDS011;63874;47.230;39.620;2023-02-18T00:53:16;3.28;;;1.70;;
75280;SDS011;63874;47.230;39.620;2023-02-18T00:55:42;3.55;;;1.40;;
75280;SDS011;63874;47.230;39.620;2023-02-18T00:58:09;2.78;;;1.10;;
75280;SDS011;63874;47.230;39.620;2023-02-18T01:00:36;4.53;;;1.95;;
75280;SDS011;63874;47.230;39.620;2023-02-18T01:03:02;3.75;;;1.48;;
75280;SDS011;63874;47.230;39.620;2023-02-18T01:05:30;3.67;;;1.67;;
75280;SDS011;63874;47.230;39.620;2023-02-18T01:07:56;5.30;;;2.28;;
75280;SDS011;63874;47.230;39.620;2023-02-18T01:10:22;3.55;;;1.17;;
75280;SDS011;63874;47.230;39.620;2023-02-18T01:12:48;3.22;;;1.52;;
75280;SDS011;63874;47.230;39.620;2023-02-18T01:15:14;3.38;;;1.25;;
75280;SDS011;63874;47.230;39.620;2023-02-18T01:17:41;2.38;;;0.65;;
75280;SDS011;63874;47.230;39.620;2023-02-18T01:20:08;4.38;;;1.27;;
75280;SDS011;63874;47.230;39.620;2023-02-18T01:22:35;2.83;;;0.65;;
75280;SDS011;63874;47.230;39.620;2023-02-18T01:25:01;4.15;;;1.50;;
75280;SDS011;63874;47.230;39.620;2023-02-18T01:27:27;4.53;;;2.65;;
75280;SDS011;63874;47.230;39.620;2023-02-18T01:29:53;4.10;;;1.77;;
75280;SDS011;63874;47.230;39.620;2023-02-18T01:32:22;1.35;;;0.40;;
75280;SDS011;63874;47.230;39.620;2023-02-18T01:34:48;4.55;;;2.03;;
75280;SDS011;63874;47.230;39.620;2023-02-18T01:37:14;2.97;;;2.00;;
75280;SDS011;63874;47.230;39.620;2023-02-18T01:39:40;5.75;;;2.58;;
75280;SDS011;63874;47.230;39.620;2023-02-18T01:42:12;4.75;;;1.70;;
75280;SDS011;63874;47.230;39.620;2023-02-18T01:44:45;4.93;;;2.28;;
75280;SDS011;63874;47.230;39.620;2023-02-18T01:47:12;7.15;;;2.70;;
75280;SDS011;63874;47.230;39.620;2023-02-18T01:49:39;6.03;;;2.72;;
75280;SDS011;63874;47.230;39.620;2023-02-18T01:52:23;5.30;;;2.40;;
75280;SDS011;63874;47.230;39.620;2023-02-18T01:54:55;3.90;;;1.77;;
75280;SDS011;63874;47.230;39.620;2023-02-18T01:57:32;6.38;;;2.38;;
75280;SDS011;63874;47.230;39.620;2023-02-18T02:00:19;5.13;;;1.70;;
75280;SDS011;63874;47.230;39.620;2023-02-18T02:02:50;7.15;;;3.20;;
75280;SDS011;63874;47.230;39.620;2023-02-18T02:05:17;4.00;;;1.70;;
75280;SDS011;63874;47.230;39.620;2023-02-18T02:07:45;2.92;;;1.55;;
75280;SDS011;63874;47.230;39.620;2023-02-18T02:10:14;7.18;;;2.22;;
75280;SDS011;63874;47.230;39.620;2023-02-18T02:31:45;5.43;;;2.28;;
75280;SDS011;63874;47.230;39.620;2023-02-18T02:39:46;5.80;;;2.65;;
75280;SDS011;63874;47.230;39.620;2023-02-18T02:42:25;8.75;;;2.30;;
75280;SDS011;63874;47.230;39.620;2023-02-18T02:45:13;4.90;;;2.30;;
75280;SDS011;63874;47.230;39.620;2023-02-18T02:47:50;4.57;;;2.08;;
75280;SDS011;63874;47.230;39.620;2023-02-18T02:50:37;4.55;;;2.03;;
75280;SDS011;63874;47.230;39.620;2023-02-18T02:53:24;5.10;;;2.58;;
75280;SDS011;63874;47.230;39.620;2023-02-18T02:55:52;5.68;;;1.75;;
75280;SDS011;63874;47.230;39.620;2023-02-18T02:58:20;3.17;;;1.65;;
75280;SDS011;63874;47.230;39.620;2023-02-18T03:00:55;6.63;;;2.88;;
75280;SDS011;63874;47.230;39.620;2023-02-18T03:09:24;3.67;;;1.73;;
75280;SDS011;63874;47.230;39.620;2023-02-18T03:17:54;6.72;;;2.67;;
75280;SDS011;63874;47.230;39.620;2023-02-18T03:20:38;4.07;;;1.95;;
75280;SDS011;63874;47.230;39.620;2023-02-18T03:23:12;8.25;;;4.00;;
75280;SDS011;63874;47.230;39.620;2023-02-18T03:25:41;4.43;;;3.00;;
75280;SDS011;63874;47.230;39.620;2023-02-18T03:28:10;5.05;;;2.63;;
75280;SDS011;63874;47.230;39.620;2023-02-18T03:30:53;8.43;;;4.50;;
75280;SDS011;63874;47.230;39.620;2023-02-18T03:33:30;5.38;;;2.20;;
75280;SDS011;63874;47.230;39.620;2023-02-18T03:36:02;5.57;;;2.38;;
75280;SDS011;63874;47.230;39.620;2023-02-18T03:38:31;6.15;;;3.13;;
75280;SDS011;63874;47.230;39.620;2023-02-18T03:41:03;6.25;;;3.28;;
75280;SDS011;63874;47.230;39.620;2023-02-18T03:43:31;5.78;;;2.42;;
75280;SDS011;63874;47.230;39.620;2023-02-18T03:45:58;4.85;;;2.00;;
75280;SDS011;63874;47.230;39.620;2023-02-18T03:48:25;4.40;;;1.92;;
75280;SDS011;63874;47.230;39.620;2023-02-18T03:50:51;7.30;;;3.67;;
75280;SDS011;63874;47.230;39.620;2023-02-18T03:53:17;6.65;;;3.13;;
75280;SDS011;63874;47.230;39.620;2023-02-18T03:55:42;2.63;;;1.33;;
75280;SDS011;63874;47.230;39.620;2023-02-18T03:58:08;3.78;;;1.75;;
75280;SDS011;63874;47.230;39.620;2023-02-18T04:00:34;5.28;;;2.20;;
75280;SDS011;63874;47.230;39.620;2023-02-18T04:03:00;7.13;;;3.40;;
75280;SDS011;63874;47.230;39.620;2023-02-18T04:05:26;5.47;;;2.65;;
75280;SDS011;63874;47.230;39.620;2023-02-18T04:07:52;6.07;;;3.05;;
75280;SDS011;63874;47.230;39.620;2023-02-18T04:10:19;6.95;;;3.67;;
75280;SDS011;63874;47.230;39.620;2023-02-18T04:12:45;6.75;;;3.30;;
75280;SDS011;63874;47.230;39.620;2023-02-18T04:15:11;3.65;;;1.73;;
75280;SDS011;63874;47.230;39.620;2023-02-18T04:17:38;7.20;;;3.03;;
75280;SDS011;63874;47.230;39.620;2023-02-18T04:20:04;5.05;;;2.53;;
75280;SDS011;63874;47.230;39.620;2023-02-18T04:22:30;6.25;;;2.55;;
75280;SDS011;63874;47.230;39.620;2023-02-18T04:24:56;5.95;;;2.40;;
75280;SDS011;63874;47.230;39.620;2023-02-18T04:27:22;5.22;;;2.05;;
75280;SDS011;63874;47.230;39.620;2023-02-18T04:29:48;5.82;;;2.42;;
75280;SDS011;63874;47.230;39.620;2023-02-18T04:32:13;4.07;;;2.08;;
75280;SDS011;63874;47.230;39.620;2023-02-18T04:34:39;3.45;;;1.80;;
75280;SDS011;63874;47.230;39.620;2023-02-18T04:37:05;7.22;;;3.35;;
75280;SDS011;63874;47.230;39.620;2023-02-18T04:39:31;4.32;;;2.15;;
75280;SDS011;63874;47.230;39.620;2023-02-18T04:41:57;5.03;;;2.38;;
75280;SDS011;63874;47.230;39.620;2023-02-18T04:44:23;4.88;;;2.55;;
75280;SDS011;63874;47.230;39.620;2023-02-18T04:46:49;5.15;;;1.83;;
75280;SDS011;63874;47.230;39.620;2023-02-18T04:49:15;3.20;;;1.25;;
75280;SDS011;63874;47.230;39.620;2023-02-18T04:51:41;4.90;;;2.47;;
75280;SDS011;63874;47.230;39.620;2023-02-18T04:54:06;4.55;;;2.22;;
75280;SDS011;63874;47.230;39.620;2023-02-18T04:56:32;6.47;;;3.10;;
75280;SDS011;63874;47.230;39.620;2023-02-18T04:58:58;4.18;;;2.00;;
75280;SDS011;63874;47.230;39.620;2023-02-18T05:01:24;5.03;;;1.98;;
75280;SDS011;63874;47.230;39.620;2023-02-18T05:03:50;5.72;;;2.92;;
75280;SDS011;63874;47.230;39.620;2023-02-18T05:06:16;8.48;;;4.78;;
75280;SDS011;63874;47.230;39.620;2023-02-18T05:08:42;7.22;;;3.83;;
75280;SDS011;63874;47.230;39.620;2023-02-18T05:11:08;4.57;;;1.88;;
75280;SDS011;63874;47.230;39.620;2023-02-18T05:13:34;7.28;;;4.20;;
75280;SDS011;63874;47.230;39.620;2023-02-18T05:16:00;3.88;;;1.63;;
75280;SDS011;63874;47.230;39.620;2023-02-18T05:18:26;3.53;;;1.33;;
75280;SDS011;63874;47.230;39.620;2023-02-18T05:20:52;6.38;;;3.33;;
75280;SDS011;63874;47.230;39.620;2023-02-18T05:23:18;7.88;;;4.25;;
75280;SDS011;63874;47.230;39.620;2023-02-18T05:25:45;6.68;;;4.10;;
75280;SDS011;63874;47.230;39.620;2023-02-18T05:28:11;7.95;;;4.57;;
75280;SDS011;63874;47.230;39.620;2023-02-18T05:30:37;3.83;;;1.88;;
75280;SDS011;63874;47.230;39.620;2023-02-18T05:33:03;4.53;;;2.17;;
75280;SDS011;63874;47.230;39.620;2023-02-18T05:35:29;8.50;;;4.47;;
75280;SDS011;63874;47.230;39.620;2023-02-18T05:37:55;6.32;;;2.53;;
75280;SDS011;63874;47.230;39.620;2023-02-18T05:40:27;8.48;;;3.65;;
75280;SDS011;63874;47.230;39.620;2023-02-18T05:42:53;5.95;;;2.35;;
75280;SDS011;63874;47.230;39.620;2023-02-18T05:45:19;5.63;;;2.95;;
75280;SDS011;63874;47.230;39.620;2023-02-18T05:47:45;8.40;;;5.25;;
75280;SDS011;63874;47.230;39.620;2023-02-18T05:50:10;7.95;;;4.28;;
75280;SDS011;63874;47.230;39.620;2023-02-18T05:52:36;8.38;;;4.93;;
75280;SDS011;63874;47.230;39.620;2023-02-18T05:55:02;7.75;;;4.50;;
75280;SDS011;63874;47.230;39.620;2023-02-18T05:57:29;7.22;;;3.78;;
75280;SDS011;63874;47.230;39.620;2023-02-18T05:59:55;6.80;;;3.47;;
75280;SDS011;63874;47.230;39.620;2023-02-18T06:02:20;7.13;;;3.53;;
75280;SDS011;63874;47.230;39.620;2023-02-18T06:04:46;3.10;;;1.52;;
75280;SDS011;63874;47.230;39.620;2023-02-18T06:07:14;7.35;;;3.80;;
75280;SDS011;63874;47.230;39.620;2023-02-18T06:09:40;6.63;;;3.35;;
75280;SDS011;63874;47.230;39.620;2023-02-18T06:12:06;7.43;;;4.32;;
75280;SDS011;63874;47.230;39.620;2023-02-18T06:14:32;7.68;;;3.70;;
75280;SDS011;63874;47.230;39.620;2023-02-18T06:16:58;7.82;;;3.28;;
75280;SDS011;63874;47.230;39.620;2023-02-18T06:19:24;5.70;;;2.70;;
75280;SDS011;63874;47.230;39.620;2023-02-18T06:21:50;5.43;;;2.53;;
75280;SDS011;63874;47.230;39.620;2023-02-18T06:24:15;3.47;;;1.75;;
75280;SDS011;63874;47.230;39.620;2023-02-18T06:26:41;7.05;;;3.33;;
75280;SDS011;63874;47.230;39.620;2023-02-18T06:29:07;6.93;;;3.15;;
75280;SDS011;63874;47.230;39.620;2023-02-18T06:31:33;7.85;;;3.60;;
75280;SDS011;63874;47.230;39.620;2023-02-18T06:33:59;6.85;;;3.53;;
75280;SDS011;63874;47.230;39.620;2023-02-18T06:36:25;6.82;;;2.58;;
75280;SDS011;63874;47.230;39.620;2023-02-18T06:38:51;9.57;;;4.93;;
75280;SDS011;63874;47.230;39.620;2023-02-18T06:41:18;6.13;;;2.78;;
75280;SDS011;63874;47.230;39.620;2023-02-18T06:43:44;10.50;;;4.28;;
75280;SDS011;63874;47.230;39.620;2023-02-18T06:46:10;4.28;;;2.88;;
75280;SDS011;63874;47.230;39.620;2023-02-18T06:48:36;7.22;;;3.28;;
75280;SDS011;63874;47.230;39.620;2023-02-18T06:51:03;5.93;;;2.78;;
75280;SDS011;63874;47.230;39.620;2023-02-18T06:53:29;11.25;;;5.78;;
75280;SDS011;63874;47.230;39.620;2023-02-18T06:55:55;7.68;;;3.85;;
75280;SDS011;63874;47.230;39.620;2023-02-18T06:58:21;8.20;;;4.22;;
75280;SDS011;63874;47.230;39.620;2023-02-18T07:00:47;7.00;;;3.33;;
75280;SDS011;63874;47.230;39.620;2023-02-18T07:03:13;9.52;;;5.35;;
75280;SDS011;63874;47.230;39.620;2023-02-18T07:05:40;7.45;;;3.63;;
75280;SDS011;63874;47.230;39.620;2023-02-18T07:08:06;8.43;;;4.28;;
75280;SDS011;63874;47.230;39.620;2023-02-18T07:10:32;13.43;;;5.22;;
75280;SDS011;63874;47.230;39.620;2023-02-18T07:12:58;6.55;;;2.97;;
75280;SDS011;63874;47.230;39.620;2023-02-18T07:15:24;9.52;;;4.55;;
75280;SDS011;63874;47.230;39.620;2023-02-18T07:17:52;6.80;;;3.60;;
75280;SDS011;63874;47.230;39.620;2023-02-18T07:20:19;10.80;;;6.13;;
75280;SDS011;63874;47.230;39.620;2023-02-18T07:22:46;8.77;;;4.18;;
75280;SDS011;63874;47.230;39.620;2023-02-18T07:25:12;7.30;;;3.80;;
75280;SDS011;63874;47.230;39.620;2023-02-18T07:27:38;13.02;;;4.85;;
75280;SDS011;63874;47.230;39.620;2023-02-18T07:30:05;5.53;;;3.45;;
75280;SDS011;63874;47.230;39.620;2023-02-18T07:32:31;10.20;;;3.90;;
75280;SDS011;63874;47.230;39.620;2023-02-18T07:34:57;6.72;;;2.92;;
75280;SDS011;63874;47.230;39.620;2023-02-18T07:37:29;15.02;;;3.95;;
75280;SDS011;63874;47.230;39.620;2023-02-18T07:39:55;16.80;;;6.20;;
75280;SDS011;63874;47.230;39.620;2023-02-18T07:42:21;3.88;;;1.83;;
75280;SDS011;63874;47.230;39.620;2023-02-18T07:44:48;7.95;;;3.22;;
75280;SDS011;63874;47.230;39.620;2023-02-18T07:47:15;8.18;;;4.55;;
75280;SDS011;63874;47.230;39.620;2023-02-18T07:49:45;8.73;;;4.60;;
75280;SDS011;63874;47.230;39.620;2023-02-18T07:52:11;28.58;;;6.18;;
75280;SDS011;63874;47.230;39.620;2023-02-18T07:54:38;11.95;;;3.22;;
75280;SDS011;63874;47.230;39.620;2023-02-18T07:57:04;15.45;;;5.97;;
75280;SDS011;63874;47.230;39.620;2023-02-18T07:59:30;6.88;;;3.70;;
75280;SDS011;63874;47.230;39.620;2023-02-18T08:01:56;7.15;;;3.70;;
75280;SDS011;63874;47.230;39.620;2023-02-18T08:04:22;13.38;;;5.57;;
75280;SDS011;63874;47.230;39.620;2023-02-18T08:06:48;18.90;;;5.05;;
75280;SDS011;63874;47.230;39.620;2023-02-18T08:09:15;11.75;;;4.60;;
75280;SDS011;63874;47.230;39.620;2023-02-18T08:11:42;15.80;;;5.43;;
75280;SDS011;63874;47.230;39.620;2023-02-18T08:16:34;23.20;;;5.20;;
75280;SDS011;63874;47.230;39.620;2023-02-18T08:21:28;7.10;;;3.70;;
75280;SDS011;63874;47.230;39.620;2023-02-18T08:23:54;10.07;;;4.60;;
75280;SDS011;63874;47.230;39.620;2023-02-18T08:26:22;8.13;;;4.45;;
75280;SDS011;63874;47.230;39.620;2023-02-18T08:28:48;12.45;;;4.60;;
75280;SDS011;63874;47.230;39.620;2023-02-18T08:31:15;23.08;;;6.57;;
75280;SDS011;63874;47.230;39.620;2023-02-18T08:33:52;9.10;;;4.95;;
75280;SDS011;63874;47.230;39.620;2023-02-18T08:36:20;7.50;;;3.13;;
75280;SDS011;63874;47.230;39.620;2023-02-18T08:38:46;13.32;;;3.30;;
75280;SDS011;63874;47.230;39.620;2023-02-18T08:43:39;8.90;;;3.10;;
75280;SDS011;63874;47.230;39.620;2023-02-18T08:46:05;8.02;;;4.00;;
75280;SDS011;63874;47.230;39.620;2023-02-18T08:48:31;9.68;;;3.20;;
75280;SDS011;63874;47.230;39.620;2023-02-18T08:53:23;18.08;;;4.57;;
75280;SDS011;63874;47.230;39.620;2023-02-18T08:55:49;10.55;;;3.40;;
75280;SDS011;63874;47.230;39.620;2023-02-18T09:00:41;8.25;;;3.88;;
75280;SDS011;63874;47.230;39.620;2023-02-18T09:03:12;19.58;;;5.75;;
75280;SDS011;63874;47.230;39.620;2023-02-18T09:05:38;15.38;;;6.32;;
75280;SDS011;63874;47.230;39.620;2023-02-18T09:08:05;20.90;;;5.47;;
75280;SDS011;63874;47.230;39.620;2023-02-18T09:10:31;9.25;;;3.45;;
75280;SDS011;63874;47.230;39.620;2023-02-18T09:12:57;15.70;;;6.43;;
75280;SDS011;63874;47.230;39.620;2023-02-18T09:15:22;42.33;;;7.18;;
75280;SDS011;63874;47.230;39.620;2023-02-18T09:17:48;7.63;;;2.92;;
75280;SDS011;63874;47.230;39.620;2023-02-18T09:20:14;14.43;;;6.50;;
75280;SDS011;63874;47.230;39.620;2023-02-18T09:22:40;9.15;;;5.50;;
75280;SDS011;63874;47.230;39.620;2023-02-18T09:25:06;10.52;;;5.47;;
75280;SDS011;63874;47.230;39.620;2023-02-18T09:27:32;15.77;;;7.03;;
75280;SDS011;63874;47.230;39.620;2023-02-18T09:29:58;12.55;;;6.28;;
75280;SDS011;63874;47.230;39.620;2023-02-18T09:32:24;7.88;;;4.13;;
75280;SDS011;63874;47.230;39.620;2023-02-18T09:34:50;11.05;;;5.78;;
75280;SDS011;63874;47.230;39.620;2023-02-18T09:37:15;13.55;;;5.00;;
75280;SDS011;63874;47.230;39.620;2023-02-18T09:39:41;10.80;;;5.88;;
75280;SDS011;63874;47.230;39.620;2023-02-18T09:42:10;10.93;;;5.15;;
75280;SDS011;63874;47.230;39.620;2023-02-18T09:47:12;8.95;;;4.35;;
75280;SDS011;63874;47.230;39.620;2023-02-18T09:49:43;25.92;;;5.03;;
75280;SDS011;63874;47.230;39.620;2023-02-18T09:54:49;13.77;;;5.50;;
75280;SDS011;63874;47.230;39.620;2023-02-18T09:57:25;10.27;;;5.50;;
75280;SDS011;63874;47.230;39.620;2023-02-18T09:59:59;11.75;;;5.57;;
75280;SDS011;63874;47.230;39.620;2023-02-18T10:02:37;10.18;;;4.93;;
75280;SDS011;63874;47.230;39.620;2023-02-18T10:05:05;9.60;;;5.50;;
75280;SDS011;63874;47.230;39.620;2023-02-18T10:07:35;20.58;;;5.95;;
75280;SDS011;63874;47.230;39.620;2023-02-18T10:10:15;17.45;;;7.60;;
75280;SDS011;63874;47.230;39.620;2023-02-18T10:12:50;17.67;;;6.95;;
75280;SDS011;63874;47.230;39.620;2023-02-18T10:15:21;25.50;;;5.68;;
75280;SDS011;63874;47.230;39.620;2023-02-18T10:17:51;20.20;;;5.68;;
75280;SDS011;63874;47.230;39.620;2023-02-18T10:20:19;15.02;;;5.18;;
75280;SDS011;63874;47.230;39.620;2023-02-18T10:22:49;14.85;;;6.22;;
75280;SDS011;63874;47.230;39.620;2023-02-18T10:25:18;20.52;;;8.73;;
75280;SDS011;63874;47.230;39.620;2023-02-18T10:27:46;15.48;;;7.90;;
75280;SDS011;63874;47.230;39.620;2023-02-18T10:32:41;10.93;;;5.72;;
75280;SDS011;63874;47.230;39.620;2023-02-18T10:35:16;12.98;;;6.47;;
75280;SDS011;63874;47.230;39.620;2023-02-18T10:38:05;11.35;;;4.90;;
75280;SDS011;63874;47.230;39.620;2023-02-18T10:40:44;15.50;;;7.22;;
75280;SDS011;63874;47.230;39.620;2023-02-18T10:51:41;14.63;;;6.50;;
75280;SDS011;63874;47.230;39.620;2023-02-18T10:54:14;12.48;;;6.15;;
75280;SDS011;63874;47.230;39.620;2023-02-18T10:56:41;15.63;;;6.18;;
75280;SDS011;63874;47.230;39.620;2023-02-18T10:59:22;11.90;;;5.60;;
75280;SDS011;63874;47.230;39.620;2023-02-18T11:01:57;11.45;;;5.35;;
75280;SDS011;63874;47.230;39.620;2023-02-18T11:04:34;9.25;;;4.63;;
75280;SDS011;63874;47.230;39.620;2023-02-18T11:07:09;15.45;;;5.25;;
75280;SDS011;63874;47.230;39.620;2023-02-18T11:09:41;11.40;;;5.28;;
75280;SDS011;63874;47.230;39.620;2023-02-18T11:12:16;17.70;;;7.75;;
75280;SDS011;63874;47.230;39.620;2023-02-18T11:14:50;14.20;;;5.95;;
75280;SDS011;63874;47.230;39.620;2023-02-18T11:17:48;11.80;;;5.90;;
75280;SDS011;63874;47.230;39.620;2023-02-18T11:22:57;11.98;;;6.28;;
75280;SDS011;63874;47.230;39.620;2023-02-18T11:25:39;19.15;;;6.82;;
75280;SDS011;63874;47.230;39.620;2023-02-18T11:30:42;12.30;;;4.90;;
75280;SDS011;63874;47.230;39.620;2023-02-18T11:35:39;9.63;;;5.07;;
75280;SDS011;63874;47.230;39.620;2023-02-18T11:38:26;9.02;;;4.30;;
75280;SDS011;63874;47.230;39.620;2023-02-18T11:41:09;3.40;;;1.90;;
75280;SDS011;63874;47.230;39.620;2023-02-18T11:43:45;9.20;;;5.15;;
75280;SDS011;63874;47.230;39.620;2023-02-18T11:46:18;10.93;;;5.43;;
75280;SDS011;63874;47.230;39.620;2023-02-18T11:48:47;6.90;;;3.45;;
75280;SDS011;63874;47.230;39.620;2023-02-18T11:51:18;12.25;;;6.15;;
75280;SDS011;63874;47.230;39.620;2023-02-18T11:53:53;10.23;;;4.68;;
75280;SDS011;63874;47.230;39.620;2023-02-18T11:56:55;7.25;;;3.38;;
75280;SDS011;63874;47.230;39.620;2023-02-18T11:59:24;4.97;;;2.67;;
75280;SDS011;63874;47.230;39.620;2023-02-18T12:04:36;6.50;;;3.72;;
75280;SDS011;63874;47.230;39.620;2023-02-18T12:07:29;9.43;;;4.40;;
75280;SDS011;63874;47.230;39.620;2023-02-18T12:13:00;8.30;;;4.22;;
75280;SDS011;63874;47.230;39.620;2023-02-18T12:18:51;8.00;;;4.43;;
75280;SDS011;63874;47.230;39.620;2023-02-18T12:32:35;7.07;;;3.38;;
75280;SDS011;63874;47.230;39.620;2023-02-18T12:38:23;7.85;;;3.25;;
75280;SDS011;63874;47.230;39.620;2023-02-18T13:03:50;10.70;;;5.85;;
75280;SDS011;63874;47.230;39.620;2023-02-18T13:14:30;6.70;;;3.35;;
75280;SDS011;63874;47.230;39.620;2023-02-18T13:17:16;10.00;;;4.22;;
75280;SDS011;63874;47.230;39.620;2023-02-18T13:20:47;9.35;;;5.47;;
75280;SDS011;63874;47.230;39.620;2023-02-18T13:22:42;11.32;;;5.70;;
75280;SDS011;63874;47.230;39.620;2023-02-18T13:25:11;8.00;;;4.15;;
75280;SDS011;63874;47.230;39.620;2023-02-18T13:30:33;7.72;;;4.28;;
75280;SDS011;63874;47.230;39.620;2023-02-18T13:41:39;6.88;;;2.95;;
75280;SDS011;63874;47.230;39.620;2023-02-18T13:44:07;10.40;;;5.55;;
75280;SDS011;63874;47.230;39.620;2023-02-18T13:46:54;11.35;;;5.85;;
75280;SDS011;63874;47.230;39.620;2023-02-18T13:49:34;8.75;;;4.70;;
75280;SDS011;63874;47.230;39.620;2023-02-18T13:52:02;6.32;;;3.83;;
75280;SDS011;63874;47.230;39.620;2023-02-18T13:57:19;10.38;;;4.25;;
75280;SDS011;63874;47.230;39.620;2023-02-18T14:00:01;5.15;;;2.85;;
75280;SDS011;63874;47.230;39.620;2023-02-18T14:02:31;7.22;;;3.15;;
75280;SDS011;63874;47.230;39.620;2023-02-18T14:12:41;9.40;;;5.55;;
75280;SDS011;63874;47.230;39.620;2023-02-18T14:28:41;11.13;;;4.65;;
75280;SDS011;63874;47.230;39.620;2023-02-18T14:39:51;18.27;;;10.05;;
75280;SDS011;63874;47.230;39.620;2023-02-18T14:50:45;14.50;;;8.55;;
75280;SDS011;63874;47.230;39.620;2023-02-18T14:53:14;12.32;;;4.95;;
75280;SDS011;63874;47.230;39.620;2023-02-18T14:55:45;13.98;;;9.40;;
75280;SDS011;63874;47.230;39.620;2023-02-18T15:00:52;13.73;;;8.05;;
75280;SDS011;63874;47.230;39.620;2023-02-18T15:05:46;11.90;;;6.00;;
75280;SDS011;63874;47.230;39.620;2023-02-18T15:08:17;13.93;;;7.72;;
75280;SDS011;63874;47.230;39.620;2023-02-18T15:11:03;15.85;;;9.98;;
75280;SDS011;63874;47.230;39.620;2023-02-18T15:13:35;16.38;;;8.43;;
75280;SDS011;63874;47.230;39.620;2023-02-18T15:16:08;11.90;;;5.57;;
75280;SDS011;63874;47.230;39.620;2023-02-18T15:18:41;8.55;;;5.18;;
75280;SDS011;63874;47.230;39.620;2023-02-18T15:21:28;15.57;;;7.68;;
75280;SDS011;63874;47.230;39.620;2023-02-18T15:24:10;15.15;;;9.23;;
75280;SDS011;63874;47.230;39.620;2023-02-18T15:26:47;13.32;;;8.05;;
75280;SDS011;63874;47.230;39.620;2023-02-18T15:29:23;18.17;;;8.35;;
75280;SDS011;63874;47.230;39.620;2023-02-18T15:31:51;20.58;;;9.68;;
75280;SDS011;63874;47.230;39.620;2023-02-18T15:36:53;14.23;;;8.45;;
75280;SDS011;63874;47.230;39.620;2023-02-18T15:39:20;11.27;;;7.00;;
75280;SDS011;63874;47.230;39.620;2023-02-18T15:41:51;12.43;;;7.32;;
75280;SDS011;63874;47.230;39.620;2023-02-18T15:44:19;11.45;;;5.47;;
75280;SDS011;63874;47.230;39.620;2023-02-18T15:46:48;11.23;;;6.57;;
75280;SDS011;63874;47.230;39.620;2023-02-18T15:49:15;13.90;;;6.40;;
75280;SDS011;63874;47.230;39.620;2023-02-18T15:51:45;13.73;;;8.18;;
75280;SDS011;63874;47.230;39.620;2023-02-18T15:54:14;16.35;;;9.68;;
75280;SDS011;63874;47.230;39.620;2023-02-18T15:56:45;14.00;;;7.70;;
75280;SDS011;63874;47.230;39.620;2023-02-18T15:59:23;14.35;;;8.98;;
75280;SDS011;63874;47.230;39.620;2023-02-18T16:04:34;21.15;;;11.80;;
75280;SDS011;63874;47.230;39.620;2023-02-18T16:07:14;12.77;;;7.55;;
75280;SDS011;63874;47.230;39.620;2023-02-18T16:10:24;15.30;;;9.00;;
75280;SDS011;63874;47.230;39.620;2023-02-18T16:13:05;17.00;;;9.73;;
75280;SDS011;63874;47.230;39.620;2023-02-18T16:15:32;12.52;;;7.45;;
75280;SDS011;63874;47.230;39.620;2023-02-18T16:18:04;11.48;;;5.75;;
75280;SDS011;63874;47.230;39.620;2023-02-18T16:20:35;11.07;;;6.75;;
75280;SDS011;63874;47.230;39.620;2023-02-18T16:23:03;17.50;;;10.73;;
75280;SDS011;63874;47.230;39.620;2023-02-18T16:28:11;12.70;;;8.27;;
75280;SDS011;63874;47.230;39.620;2023-02-18T16:30:40;11.95;;;6.90;;
75280;SDS011;63874;47.230;39.620;2023-02-18T16:33:09;13.25;;;7.82;;
75280;SDS011;63874;47.230;39.620;2023-02-18T16:35:36;17.60;;;8.45;;
75280;SDS011;63874;47.230;39.620;2023-02-18T16:38:02;16.13;;;9.82;;
75280;SDS011;63874;47.230;39.620;2023-02-18T16:40:33;15.02;;;8.27;;
75280;SDS011;63874;47.230;39.620;2023-02-18T16:43:10;11.80;;;6.35;;
75280;SDS011;63874;47.230;39.620;2023-02-18T16:45:38;11.00;;;5.32;;
75280;SDS011;63874;47.230;39.620;2023-02-18T16:48:14;10.35;;;6.15;;
75280;SDS011;63874;47.230;39.620;2023-02-18T16:51:00;12.98;;;7.55;;
75280;SDS011;63874;47.230;39.620;2023-02-18T16:53:29;13.23;;;8.57;;
75280;SDS011;63874;47.230;39.620;2023-02-18T16:58:21;13.60;;;7.50;;
75280;SDS011;63874;47.230;39.620;2023-02-18T17:00:47;11.82;;;7.00;;
75280;SDS011;63874;47.230;39.620;2023-02-18T17:03:16;12.93;;;6.88;;
75280;SDS011;63874;47.230;39.620;2023-02-18T17:05:42;8.85;;;5.75;;
75280;SDS011;63874;47.230;39.620;2023-02-18T17:08:18;17.05;;;10.63;;
75280;SDS011;63874;47.230;39.620;2023-02-18T17:10:48;12.40;;;9.15;;
75280;SDS011;63874;47.230;39.620;2023-02-18T17:13:16;16.98;;;10.45;;
75280;SDS011;63874;47.230;39.620;2023-02-18T17:15:45;15.48;;;10.75;;
75280;SDS011;63874;47.230;39.620;2023-02-18T17:18:12;12.02;;;8.50;;
75280;SDS011;63874;47.230;39.620;2023-02-18T17:20:38;13.10;;;9.07;;
75280;SDS011;63874;47.230;39.620;2023-02-18T17:23:04;17.48;;;11.60;;
75280;SDS011;63874;47.230;39.620;2023-02-18T17:25:34;18.98;;;10.85;;
75280;SDS011;63874;47.230;39.620;2023-02-18T17:28:03;13.02;;;7.65;;
75280;SDS011;63874;47.230;39.620;2023-02-18T17:30:30;14.15;;;9.27;;
75280;SDS011;63874;47.230;39.620;2023-02-18T17:32:59;18.80;;;12.38;;
75280;SDS011;63874;47.230;39.620;2023-02-18T17:35:26;16.98;;;11.75;;
75280;SDS011;63874;47.230;39.620;2023-02-18T17:37:52;21.25;;;11.32;;
75280;SDS011;63874;47.230;39.620;2023-02-18T17:40:19;15.88;;;8.80;;
75280;SDS011;63874;47.230;39.620;2023-02-18T17:42:50;14.35;;;9.27;;
75280;SDS011;63874;47.230;39.620;2023-02-18T17:45:20;17.33;;;11.68;;
75280;SDS011;63874;47.230;39.620;2023-02-18T17:47:57;14.07;;;9.10;;
75280;SDS011;63874;47.230;39.620;2023-02-18T17:50:24;12.77;;;9.68;;
75280;SDS011;63874;47.230;39.620;2023-02-18T17:52:51;15.05;;;8.75;;
75280;SDS011;63874;47.230;39.620;2023-02-18T17:55:24;14.20;;;9.23;;
75280;SDS011;63874;47.230;39.620;2023-02-18T17:57:52;13.70;;;8.13;;
75280;SDS011;63874;47.230;39.620;2023-02-18T18:00:20;13.13;;;8.77;;